createdAt,value
2022-11-14T00:00:34.333Z,11.70
2022-11-14T00:03:06.230Z,34.28
2022-11-14T00:05:41.232Z,34.90
2022-11-14T00:08:17.633Z,13.70
2022-11-14T00:10:49.261Z,17.58
2022-11-14T00:13:23.018Z,22.45
2022-11-14T00:15:54.484Z,17.42
2022-11-14T00:18:25.211Z,15.93
2022-11-14T00:20:58.332Z,15.25
2022-11-14T00:23:28.555Z,13.48
2022-11-14T00:25:58.779Z,12.90
2022-11-14T00:28:40.254Z,11.82
2022-11-14T00:31:10.308Z,12.27
2022-11-14T00:33:40.890Z,11.55
2022-11-14T00:36:11.536Z,13.70
2022-11-14T00:38:41.786Z,11.95
2022-11-14T00:41:11.747Z,11.50
2022-11-14T00:43:44.713Z,11.32
2022-11-14T00:46:15.215Z,10.80
2022-11-14T00:48:45.652Z,10.75
2022-11-14T00:51:16.254Z,10.23
2022-11-14T00:53:46.449Z,10.07
2022-11-14T00:56:16.711Z,10.38
2022-11-14T00:58:49.719Z,11.60
2022-11-14T01:01:20.957Z,10.05
2022-11-14T01:03:52.312Z,9.85
2022-11-14T01:08:55.711Z,9.57
2022-11-14T01:11:26.163Z,9.23
2022-11-14T01:13:59.235Z,9.90
2022-11-14T01:16:29.301Z,10.52
2022-11-14T01:18:59.387Z,8.60
2022-11-14T01:21:29.589Z,9.93
2022-11-14T01:23:59.852Z,9.27
2022-11-14T01:26:30.062Z,9.20
2022-11-14T01:29:02.665Z,9.35
2022-11-14T01:31:32.875Z,8.52
2022-11-14T01:34:03.199Z,8.77
2022-11-14T01:36:33.404Z,9.23
2022-11-14T01:39:03.684Z,8.93
2022-11-14T01:41:34.050Z,8.60
2022-11-14T01:44:08.673Z,8.77
2022-11-14T01:46:40.420Z,8.15
2022-11-14T01:49:18.358Z,8.95
2022-11-14T01:54:25.797Z,7.55
2022-11-14T01:57:00.257Z,7.97
2022-11-14T01:59:37.620Z,8.23
2022-11-14T02:02:13.257Z,7.50
2022-11-14T02:04:46.566Z,6.65
2022-11-14T02:07:17.722Z,7.78
2022-11-14T02:09:50.093Z,8.52
2022-11-14T02:12:22.337Z,7.75
2022-11-14T02:14:58.715Z,7.50
2022-11-14T02:17:30.805Z,8.75
2022-11-14T02:20:17.737Z,7.65
2022-11-14T02:22:47.687Z,7.93
2022-11-14T02:25:21.283Z,7.57
2022-11-14T02:27:51.495Z,6.90
2022-11-14T02:30:24.378Z,7.28
2022-11-14T02:33:10.468Z,8.52
2022-11-14T02:35:44.162Z,8.02
2022-11-14T02:38:14.179Z,8.63
2022-11-14T02:40:44.352Z,7.47
2022-11-14T02:43:14.404Z,7.45
2022-11-14T02:45:44.683Z,7.85
2022-11-14T02:48:14.724Z,7.90
2022-11-14T02:50:47.403Z,7.72
2022-11-14T02:53:17.576Z,7.32
2022-11-14T02:55:47.704Z,7.90
2022-11-14T02:58:17.738Z,7.43
2022-11-14T03:01:13.680Z,8.05
2022-11-14T03:03:37.951Z,6.72
2022-11-14T03:06:10.768Z,8.05
2022-11-14T03:08:40.996Z,8.45
2022-11-14T03:11:13.329Z,8.02
2022-11-14T03:13:43.338Z,7.28
2022-11-14T03:16:15.463Z,7.38
2022-11-14T03:18:45.586Z,9.70
2022-11-14T03:21:19.863Z,7.22
2022-11-14T03:23:50.000Z,7.40
2022-11-14T03:26:20.180Z,7.75
2022-11-14T03:28:50.296Z,7.93
2022-11-14T03:31:22.286Z,7.78
2022-11-14T03:33:52.526Z,7.68
2022-11-14T03:36:25.125Z,8.10
2022-11-14T03:38:55.652Z,7.82
2022-11-14T03:41:26.040Z,7.55
2022-11-14T03:43:56.239Z,7.53
2022-11-14T03:46:26.405Z,7.22
2022-11-14T03:48:56.495Z,7.65
2022-11-14T03:51:29.686Z,7.15
2022-11-14T03:53:59.859Z,7.65
2022-11-14T03:56:29.887Z,6.97
2022-11-14T03:58:59.885Z,7.38
2022-11-14T04:01:30.405Z,7.40
2022-11-14T04:04:00.616Z,8.35
2022-11-14T04:06:33.260Z,8.02
2022-11-14T04:09:03.476Z,7.80
2022-11-14T04:11:33.661Z,7.18
2022-11-14T04:14:06.808Z,8.43
2022-11-14T04:16:37.632Z,7.78
2022-11-14T04:19:07.670Z,8.02
2022-11-14T04:21:40.271Z,8.00
2022-11-14T04:24:11.382Z,6.88
2022-11-14T04:26:41.530Z,8.05
2022-11-14T04:29:11.528Z,7.18
2022-11-14T04:31:41.775Z,7.80
2022-11-14T04:34:11.760Z,8.07
2022-11-14T04:36:44.395Z,7.47
2022-11-14T04:39:14.580Z,7.60
2022-11-14T04:41:45.229Z,6.97
2022-11-14T04:44:15.430Z,7.70
2022-11-14T04:46:45.418Z,7.85
2022-11-14T04:49:15.383Z,7.25
2022-11-14T04:51:48.040Z,7.55
2022-11-14T04:54:18.234Z,7.95
2022-11-14T04:56:48.286Z,8.38
2022-11-14T04:59:21.117Z,7.40
2022-11-14T05:01:51.699Z,7.47
2022-11-14T05:04:22.580Z,7.47
2022-11-14T05:06:55.324Z,8.35
2022-11-14T05:09:25.362Z,8.43
2022-11-14T05:11:55.497Z,7.68
2022-11-14T05:14:25.750Z,6.95
2022-11-14T05:16:55.737Z,7.32
2022-11-14T05:19:25.914Z,7.38
2022-11-14T05:21:58.557Z,7.40
2022-11-14T05:24:28.989Z,7.13
2022-11-14T05:26:59.067Z,7.82
2022-11-14T05:29:29.034Z,7.30
2022-11-14T05:31:59.347Z,7.30
2022-11-14T05:34:29.469Z,7.10
2022-11-14T05:37:03.918Z,7.88
2022-11-14T05:39:34.104Z,7.75
2022-11-14T05:42:04.312Z,6.97
2022-11-14T05:44:34.542Z,9.10
2022-11-14T05:47:04.575Z,7.97
2022-11-14T05:49:34.529Z,7.45
2022-11-14T05:52:07.386Z,7.80
2022-11-14T05:54:37.321Z,8.10
2022-11-14T05:57:07.784Z,8.07
2022-11-14T05:59:37.751Z,6.85
2022-11-14T06:02:07.974Z,7.90
2022-11-14T06:04:38.173Z,8.30
2022-11-14T06:07:10.809Z,8.30
2022-11-14T06:09:41.121Z,7.18
2022-11-14T06:12:11.228Z,8.73
2022-11-14T06:14:41.397Z,9.43
2022-11-14T06:17:11.418Z,11.10
2022-11-14T06:19:41.370Z,10.48
2022-11-14T06:22:14.022Z,9.90
2022-11-14T06:24:44.207Z,8.00
2022-11-14T06:27:14.497Z,8.90
2022-11-14T06:29:44.472Z,8.35
2022-11-14T06:32:14.476Z,8.93
2022-11-14T06:34:44.679Z,7.45
2022-11-14T06:37:17.253Z,8.05
2022-11-14T06:39:47.552Z,8.27
2022-11-14T06:42:19.374Z,9.75
2022-11-14T06:44:49.368Z,9.05
2022-11-14T06:47:19.306Z,8.10
2022-11-14T06:49:49.302Z,8.13
2022-11-14T06:52:22.369Z,8.38
2022-11-14T06:54:52.395Z,7.85
2022-11-14T06:57:22.475Z,7.53
2022-11-14T06:59:52.512Z,7.47
2022-11-14T07:02:22.847Z,7.55
2022-11-14T07:04:53.302Z,10.07
2022-11-14T07:07:28.521Z,10.05
2022-11-14T07:09:59.382Z,9.35
2022-11-14T07:12:29.679Z,10.52
2022-11-14T07:14:59.645Z,9.05
2022-11-14T07:17:31.337Z,10.23
2022-11-14T07:20:01.656Z,8.38
2022-11-14T07:22:34.399Z,9.05
2022-11-14T07:25:05.011Z,8.38
2022-11-14T07:27:34.937Z,8.27
2022-11-14T07:30:05.227Z,8.60
2022-11-14T07:32:35.483Z,8.40
2022-11-14T07:35:05.465Z,8.65
2022-11-14T07:37:38.226Z,7.57
2022-11-14T07:40:08.958Z,8.52
2022-11-14T07:42:38.889Z,8.50
2022-11-14T07:45:10.126Z,9.07
2022-11-14T07:47:40.299Z,9.32
2022-11-14T07:50:14.089Z,8.48
2022-11-14T07:52:53.595Z,8.77
2022-11-14T07:55:24.446Z,9.43
2022-11-14T07:57:56.672Z,10.68
2022-11-14T08:00:26.804Z,7.72
2022-11-14T08:02:56.802Z,7.20
2022-11-14T08:05:26.901Z,7.95
2022-11-14T08:07:59.469Z,8.77
2022-11-14T08:10:33.541Z,7.40
2022-11-14T08:13:30.490Z,8.10
2022-11-14T08:15:55.838Z,8.00
2022-11-14T08:18:26.029Z,7.82
2022-11-14T08:20:57.697Z,10.30
2022-11-14T08:23:30.501Z,8.68
2022-11-14T08:26:01.724Z,9.57
2022-11-14T08:28:32.790Z,8.65
2022-11-14T08:31:04.201Z,7.90
2022-11-14T08:33:34.972Z,8.57
2022-11-14T08:36:05.309Z,9.40
2022-11-14T08:38:38.486Z,13.15
2022-11-14T08:41:09.110Z,12.27
2022-11-14T08:43:39.354Z,12.57
2022-11-14T08:46:09.384Z,10.55
2022-11-14T08:48:39.320Z,9.85
2022-11-14T08:51:10.099Z,10.57
2022-11-14T08:53:42.969Z,11.05
2022-11-14T08:56:14.213Z,14.35
2022-11-14T08:58:44.133Z,14.68
2022-11-14T09:01:14.359Z,16.17
2022-11-14T09:03:44.432Z,15.95
2022-11-14T09:06:14.534Z,15.60
2022-11-14T09:08:47.096Z,15.35
2022-11-14T09:11:29.117Z,15.73
2022-11-14T09:13:59.179Z,15.90
2022-11-14T09:16:29.202Z,15.40
2022-11-14T09:18:59.213Z,14.10
2022-11-14T09:21:29.561Z,15.10
2022-11-14T09:26:32.220Z,14.55
2022-11-14T09:29:02.489Z,12.65
2022-11-14T09:31:32.659Z,11.95
2022-11-14T09:34:02.620Z,12.95
2022-11-14T09:36:32.550Z,14.35
2022-11-14T09:39:05.191Z,13.68
2022-11-14T09:41:50.301Z,10.95
2022-11-14T09:44:47.752Z,12.25
2022-11-14T09:47:21.472Z,10.90
2022-11-14T09:49:54.383Z,10.02
2022-11-14T09:52:33.831Z,10.52
2022-11-14T09:55:14.990Z,9.63
2022-11-14T09:57:46.918Z,9.90
2022-11-14T10:00:19.345Z,9.15
2022-11-14T10:03:07.650Z,8.18
2022-11-14T10:05:52.340Z,8.48
2022-11-14T10:08:44.716Z,9.18
2022-11-14T10:11:25.811Z,8.27
2022-11-14T10:14:26.560Z,8.40
2022-11-14T10:17:10.825Z,8.65
2022-11-14T10:19:48.681Z,7.97
2022-11-14T10:22:35.407Z,7.75
2022-11-14T10:25:18.401Z,7.70
2022-11-14T10:28:06.965Z,7.72
2022-11-14T10:30:43.407Z,7.97
2022-11-14T10:33:24.189Z,8.88
2022-11-14T10:36:00.654Z,9.30
2022-11-14T10:38:36.410Z,8.18
2022-11-14T10:41:09.433Z,8.60
2022-11-14T10:43:46.829Z,6.88
2022-11-14T10:46:21.155Z,8.95
2022-11-14T10:48:58.914Z,8.40
2022-11-14T10:51:36.014Z,8.48
2022-11-14T10:54:13.529Z,7.72
2022-11-14T10:56:49.420Z,7.88
2022-11-14T10:59:22.647Z,7.88
2022-11-14T11:01:58.325Z,8.52
2022-11-14T11:04:30.982Z,7.85
2022-11-14T11:07:33.264Z,7.35
2022-11-14T11:10:16.969Z,7.22
2022-11-14T11:12:49.880Z,8.00
2022-11-14T11:15:25.193Z,8.07
2022-11-14T11:17:59.703Z,8.20
2022-11-14T11:20:34.153Z,8.13
2022-11-14T11:23:09.021Z,7.65
2022-11-14T11:25:40.489Z,7.95
2022-11-14T11:28:15.106Z,7.50
2022-11-14T11:30:59.086Z,6.93
2022-11-14T11:36:03.578Z,7.70
2022-11-14T11:38:35.578Z,7.65
2022-11-14T11:42:00.940Z,9.05
2022-11-14T11:44:19.396Z,8.90
2022-11-14T11:46:59.295Z,8.20
2022-11-14T11:49:39.861Z,7.50
2022-11-14T11:52:16.591Z,6.97
2022-11-14T11:54:56.786Z,8.55
2022-11-14T11:57:33.315Z,7.65
2022-11-14T12:00:09.453Z,7.57
2022-11-14T12:02:49.801Z,7.57
2022-11-14T12:05:27.087Z,8.15
2022-11-14T12:08:04.660Z,7.85
2022-11-14T12:10:39.224Z,7.70
2022-11-14T12:13:47.795Z,8.52
2022-11-14T12:16:31.503Z,6.93
2022-11-14T12:19:46.827Z,7.85
2022-11-14T12:22:35.447Z,8.68
2022-11-14T12:25:35.902Z,8.25
2022-11-14T12:28:18.572Z,7.72
2022-11-14T12:30:51.245Z,7.70
2022-11-14T12:33:26.541Z,7.97
2022-11-14T12:36:02.411Z,8.02
2022-11-14T12:38:38.250Z,7.93
2022-11-14T12:41:09.224Z,7.25
2022-11-14T12:46:13.064Z,6.75
2022-11-14T12:48:44.962Z,7.55
2022-11-14T12:51:44.938Z,7.70
2022-11-14T12:54:49.433Z,7.72
2022-11-14T12:57:40.319Z,6.68
2022-11-14T13:00:12.849Z,7.30
2022-11-14T13:03:16.235Z,6.72
2022-11-14T13:06:00.591Z,7.35
2022-11-14T13:08:59.962Z,6.63
2022-11-14T13:11:57.321Z,7.32
2022-11-14T13:14:40.209Z,7.28
2022-11-14T13:17:38.173Z,7.05
2022-11-14T13:20:44.740Z,6.57
2022-11-14T13:23:44.797Z,11.73
2022-11-14T13:26:44.769Z,7.35
2022-11-14T13:29:57.846Z,7.38
2022-11-14T13:33:01.100Z,7.28
2022-11-14T13:36:00.740Z,7.47
2022-11-14T13:39:06.605Z,6.95
2022-11-14T13:42:06.560Z,6.78
2022-11-14T13:45:12.295Z,6.60
2022-11-14T13:48:12.622Z,6.78
2022-11-14T13:50:50.813Z,7.00
2022-11-14T13:53:26.751Z,6.80
2022-11-14T13:56:07.306Z,7.07
2022-11-14T13:58:59.401Z,6.78
2022-11-14T14:01:46.348Z,6.80
2022-11-14T14:04:35.899Z,6.78
2022-11-14T14:07:14.791Z,6.55
2022-11-14T14:10:00.204Z,6.78
2022-11-14T14:12:50.580Z,5.57
2022-11-14T14:15:29.204Z,6.13
2022-11-14T14:18:09.071Z,5.07
2022-11-14T14:20:47.807Z,5.93
2022-11-14T14:23:34.283Z,6.15
2022-11-14T14:26:15.753Z,6.38
2022-11-14T14:28:56.598Z,6.80
2022-11-14T14:31:27.383Z,7.13
2022-11-14T14:33:57.503Z,7.38
2022-11-14T14:36:30.110Z,7.85
2022-11-14T14:39:30.534Z,8.75
2022-11-14T14:42:03.419Z,8.43
2022-11-14T14:44:39.762Z,8.32
2022-11-14T14:47:19.413Z,8.40
2022-11-14T14:49:49.536Z,8.48
2022-11-14T14:52:32.763Z,7.65
2022-11-14T14:55:03.831Z,8.55
2022-11-14T14:57:36.891Z,8.40
2022-11-14T15:00:10.739Z,7.63
2022-11-14T15:02:41.179Z,8.70
2022-11-14T15:05:11.760Z,8.35
2022-11-14T15:07:43.025Z,9.68
2022-11-14T15:10:25.178Z,8.57
2022-11-14T15:12:59.105Z,9.50
2022-11-14T15:15:31.191Z,9.70
2022-11-14T15:18:05.424Z,9.40
2022-11-14T15:20:35.538Z,9.90
2022-11-14T15:23:07.701Z,8.57
2022-11-14T15:25:37.973Z,9.20
2022-11-14T15:28:18.410Z,10.32
2022-11-14T15:31:00.785Z,10.98
2022-11-14T15:33:32.916Z,10.73
2022-11-14T15:36:10.939Z,10.95
2022-11-14T15:38:53.803Z,10.38
2022-11-14T15:41:25.616Z,9.57
2022-11-14T15:44:02.223Z,10.32
2022-11-14T15:46:44.776Z,12.20
2022-11-14T15:49:25.594Z,12.48
2022-11-14T15:51:58.644Z,12.18
2022-11-14T15:54:31.544Z,12.70
2022-11-14T15:57:03.166Z,11.63
2022-11-14T15:59:36.165Z,10.48
2022-11-14T16:02:13.491Z,12.82
2022-11-14T16:04:47.561Z,20.48
2022-11-14T16:07:19.720Z,13.90
2022-11-14T16:09:50.337Z,13.45
2022-11-14T16:12:20.688Z,14.05
2022-11-14T16:14:53.497Z,11.07
2022-11-14T16:17:23.516Z,13.75
2022-11-14T16:19:53.654Z,12.55
2022-11-14T16:22:26.597Z,12.18
2022-11-14T16:24:57.103Z,12.50
2022-11-14T16:27:27.173Z,12.82
2022-11-14T16:29:59.921Z,12.77
2022-11-14T16:32:30.049Z,12.85
2022-11-14T16:35:00.147Z,11.98
2022-11-14T16:37:30.182Z,11.30
2022-11-14T16:40:00.381Z,10.82
2022-11-14T16:42:30.395Z,11.55
2022-11-14T16:45:05.854Z,11.05
2022-11-14T16:47:36.891Z,10.68
2022-11-14T16:50:07.461Z,10.52
2022-11-14T16:52:37.762Z,10.40
2022-11-14T16:55:08.735Z,10.27
2022-11-14T16:57:39.270Z,10.52
2022-11-14T17:00:15.102Z,13.60
2022-11-14T17:02:45.903Z,10.30
2022-11-14T17:05:16.574Z,10.10
2022-11-14T17:07:46.596Z,10.07
2022-11-14T17:10:16.731Z,11.13
2022-11-14T17:12:46.679Z,10.40
2022-11-14T17:15:19.676Z,8.95
2022-11-14T17:17:50.451Z,9.98
2022-11-14T17:20:20.776Z,10.05
2022-11-14T17:22:50.854Z,10.73
2022-11-14T17:25:20.986Z,11.25
2022-11-14T17:27:51.732Z,10.10
2022-11-14T17:30:24.434Z,9.48
2022-11-14T17:32:56.691Z,10.35
2022-11-14T17:35:26.839Z,10.82
2022-11-14T17:38:00.312Z,9.50
2022-11-14T17:40:30.707Z,10.02
2022-11-14T17:43:00.800Z,8.52
2022-11-14T17:45:33.560Z,9.23
2022-11-14T17:48:03.635Z,9.25
2022-11-14T17:50:37.539Z,9.32
2022-11-14T17:53:07.928Z,10.80
2022-11-14T17:55:38.698Z,9.80
2022-11-14T17:58:08.770Z,10.00
2022-11-14T18:00:41.913Z,9.75
2022-11-14T18:03:11.959Z,9.02
2022-11-14T18:05:41.987Z,10.23
2022-11-14T18:08:12.048Z,10.55
2022-11-14T18:10:42.315Z,9.55
2022-11-14T18:13:12.620Z,10.27
2022-11-14T18:15:45.338Z,10.00
2022-11-14T18:18:15.545Z,9.63
2022-11-14T18:20:45.567Z,10.00
2022-11-14T18:23:15.698Z,10.32
2022-11-14T18:25:45.789Z,9.70
2022-11-14T18:28:15.826Z,10.10
2022-11-14T18:30:56.942Z,8.95
2022-11-14T18:33:26.916Z,9.50
2022-11-14T18:36:00.640Z,8.43
2022-11-14T18:38:34.075Z,8.18
2022-11-14T18:41:06.252Z,7.95
2022-11-14T18:43:36.372Z,8.07
2022-11-14T18:46:15.070Z,8.48
2022-11-14T18:48:47.154Z,7.63
2022-11-14T18:51:19.651Z,7.80
2022-11-14T18:53:55.446Z,7.32
2022-11-14T18:56:26.885Z,7.60
2022-11-14T18:59:05.767Z,7.65
2022-11-14T19:01:39.116Z,8.10
2022-11-14T19:04:10.644Z,7.43
2022-11-14T19:06:42.524Z,8.35
2022-11-14T19:09:16.068Z,9.50
2022-11-14T19:11:59.073Z,7.53
2022-11-14T19:14:29.268Z,6.93
2022-11-14T19:17:02.855Z,7.90
2022-11-14T19:19:32.948Z,7.40
2022-11-14T19:22:04.199Z,8.27
2022-11-14T19:27:04.398Z,8.00
2022-11-14T19:29:34.435Z,9.05
2022-11-14T19:32:07.330Z,8.20
2022-11-14T19:34:37.508Z,8.10
2022-11-14T19:37:07.685Z,9.05
2022-11-14T19:39:37.652Z,8.95
2022-11-14T19:42:07.924Z,9.20
2022-11-14T19:44:38.043Z,9.50
2022-11-14T19:47:10.777Z,9.77
2022-11-14T19:49:40.968Z,10.55
2022-11-14T19:52:11.765Z,9.98
2022-11-14T19:54:42.044Z,10.30
2022-11-14T19:57:12.139Z,11.27
2022-11-14T19:59:42.331Z,10.65
2022-11-14T20:02:16.221Z,10.48
2022-11-14T20:04:50.270Z,11.35
2022-11-14T20:07:20.384Z,10.90
2022-11-14T20:09:50.443Z,10.30
2022-11-14T20:12:20.540Z,9.65
2022-11-14T20:14:50.735Z,10.55
2022-11-14T20:17:23.446Z,11.93
2022-11-14T20:19:53.776Z,11.77
2022-11-14T20:22:24.165Z,11.65
2022-11-14T20:24:54.161Z,10.95
2022-11-14T20:27:24.361Z,11.88
2022-11-14T20:29:54.455Z,12.40
2022-11-14T20:32:27.253Z,12.07
2022-11-14T20:34:57.460Z,12.95
2022-11-14T20:37:27.635Z,14.52
2022-11-14T20:39:57.678Z,13.18
2022-11-14T20:42:27.924Z,12.00
2022-11-14T20:44:58.310Z,12.65
2022-11-14T20:47:32.194Z,12.18
2022-11-14T20:50:03.268Z,12.73
2022-11-14T20:52:35.501Z,14.18
2022-11-14T20:55:11.421Z,12.77
2022-11-14T20:57:42.064Z,13.13
2022-11-14T21:00:14.007Z,11.63
2022-11-14T21:02:47.286Z,12.20
2022-11-14T21:05:17.512Z,13.32
2022-11-14T21:07:47.667Z,12.23
2022-11-14T21:10:30.281Z,12.82
2022-11-14T21:13:13.068Z,11.65
2022-11-14T21:15:43.228Z,13.23
2022-11-14T21:18:16.054Z,11.25
2022-11-14T21:20:46.304Z,12.13
2022-11-14T21:23:16.564Z,13.20
2022-11-14T21:25:48.830Z,13.57
2022-11-14T21:28:20.085Z,12.00
2022-11-14T21:33:22.563Z,13.07
2022-11-14T21:35:52.752Z,13.10
2022-11-14T21:38:23.283Z,12.98
2022-11-14T21:40:59.925Z,12.15
2022-11-14T21:43:30.316Z,12.38
2022-11-14T21:46:02.349Z,13.60
2022-11-14T21:48:41.407Z,13.25
2022-11-14T21:51:15.134Z,12.48
2022-11-14T21:53:46.488Z,13.15
2022-11-14T21:56:18.704Z,13.13
2022-11-14T21:58:48.983Z,13.88
2022-11-14T22:01:41.316Z,14.43
2022-11-14T22:04:14.200Z,14.95
2022-11-14T22:06:45.451Z,14.27
2022-11-14T22:11:45.613Z,12.73
2022-11-14T22:14:15.991Z,15.68
2022-11-14T22:16:46.300Z,14.52
2022-11-14T22:19:19.626Z,15.30
2022-11-14T22:21:49.893Z,15.63
2022-11-14T22:24:20.003Z,15.85
2022-11-14T22:26:50.111Z,15.45
2022-11-14T22:29:20.104Z,15.68
2022-11-14T22:31:57.989Z,14.38
2022-11-14T22:34:30.667Z,14.82
2022-11-14T22:37:00.732Z,14.45
2022-11-14T22:39:31.028Z,14.38
2022-11-14T22:42:01.061Z,16.25
2022-11-14T22:44:31.279Z,15.48
2022-11-14T22:47:01.383Z,14.57
2022-11-14T22:49:34.150Z,15.05
2022-11-14T22:52:04.186Z,14.23
2022-11-14T22:54:34.363Z,15.52
2022-11-14T22:57:04.449Z,15.40
2022-11-14T22:59:34.635Z,16.00
2022-11-14T23:02:04.817Z,14.90
2022-11-14T23:04:37.823Z,15.52
2022-11-14T23:07:07.970Z,14.18
2022-11-14T23:09:38.127Z,15.35
2022-11-14T23:12:09.066Z,13.60
2022-11-14T23:14:39.258Z,13.98
2022-11-14T23:17:09.322Z,14.77
2022-11-14T23:19:42.066Z,14.82
2022-11-14T23:22:12.111Z,13.68
2022-11-14T23:24:42.327Z,14.30
2022-11-14T23:27:12.357Z,14.82
2022-11-14T23:29:42.662Z,13.75
2022-11-14T23:32:12.870Z,13.88
2022-11-14T23:34:45.697Z,13.85
2022-11-14T23:37:15.688Z,14.05
2022-11-14T23:39:45.814Z,12.50
2022-11-14T23:42:15.911Z,13.10
2022-11-14T23:44:46.103Z,14.23
2022-11-14T23:47:16.137Z,12.85
2022-11-14T23:49:48.917Z,11.93
2022-11-14T23:52:19.006Z,12.35
2022-11-14T23:54:49.807Z,12.55
2022-11-14T23:57:19.821Z,11.65
2022-11-14T23:59:53.073Z,12.00
